Appleyard, Washington
Current Conditions -  °F | °C
As of 11:55 AM on Monday 22 Dec 2014 (Local Time) from KEAT Reporting Station
Clear Clear  
Wind Chill:   Ceiling: Unl
Heat Index:   Visibility: 10mi
Dew Point: -2°   Wind: 7mph
Humidity: 46%   Direction: 310°NW
Pressure: 30.25"   Gusts: 17mph
Location:  47.3635°N, 120.348°W
Report Text: KEAT 221955Z AUTO 31006G15KT 10SM CLR 09/M02 A3025 RMK AO2 SLP248 T00891022
Loading
Personal Weather Stations






























Interactive Weather Map New forecast layout! Learn more

10-Day Weather Forecast

Advertisements
Track Severe Weather on mobile